Time;durP1;ratioP1;P1;durP2;ratioP2;P2;SDS_P1;SDS_P2;PMS_P1;PMS_P2;Temp;Humidity;BMP_temperature;BMP_pressure;BME280_temperature;BME280_humidity;BME280_pressure;Samples;Min_cycle;Max_cycle;Signal;HPM_P1;HPM_P2
2021/03/26 00:00:49;;;;;;;;;;;;;;;;;;5021256;28;20040;-70
2021/03/26 00:03:17;;;;;;;7.15;2.50;;;;;;;;;;5019383;28;19912;-72
2021/03/26 00:05:45;;;;;;;4.85;2.40;;;;;;;;;;5018163;28;20041;-73
2021/03/26 00:08:16;;;;;;;8.38;2.78;;;;;;;;;;5029609;28;20083;-72
2021/03/26 00:10:44;;;;;;;6.55;3.13;;;;;;;;;;5021925;28;20029;-72
2021/03/26 00:13:12;;;;;;;9.68;3.20;;;;;;;;;;5017349;28;20033;-72
2021/03/26 00:15:42;;;;;;;8.27;3.17;;;;;;;;;;5033194;28;20068;-72
2021/03/26 00:18:08;;;;;;;11.68;3.15;;;;;;;;;;5008245;28;20028;-72
2021/03/26 00:20:35;;;;;;;8.80;3.08;;;;;;;;;;5019567;28;20053;-72
2021/03/26 00:23:04;;;;;;;6.32;3.20;;;;;;;;;;5015340;28;20041;-73
2021/03/26 00:25:30;;;;;;;10.23;3.20;;;;;;;;;;5006057;28;20029;-72
2021/03/26 00:28:01;;;;;;;9.63;3.15;;;;;;;;;;5013343;28;20045;-73
2021/03/26 00:30:27;;;;;;;5.35;2.95;;;;;;;;;;5017028;28;20163;-72
2021/03/26 00:32:54;;;;;;;6.75;3.28;;;;;;;;;;5014890;28;20033;-72
2021/03/26 00:35:23;;;;;;;8.73;3.03;;;;;;;;;;5006994;28;20037;-71
2021/03/26 00:37:54;;;;;;;10.20;3.10;;;;;;;;;;5019454;28;20033;-73
2021/03/26 00:40:20;;;;;;;7.63;2.90;;;;;;;;;;5020047;28;20094;-72
2021/03/26 00:42:46;;;;;;;5.95;2.90;;;;;;;;;;5034308;28;20049;-73
2021/03/26 00:45:16;;;;;;;7.35;3.83;;;;;;;;;;5020954;28;20115;-73
2021/03/26 00:47:42;;;;;;;9.43;3.33;;;;;;;;;;5017156;28;20151;-71
2021/03/26 00:50:21;;;;;;;6.75;3.13;;;;;;;;;;5022819;28;20098;-72
2021/03/26 00:52:46;;;;;;;12.15;3.50;;;;;;;;;;5003009;28;20040;-71
2021/03/26 00:55:15;;;;;;;6.82;3.47;;;;;;;;;;5020644;28;20032;-71
2021/03/26 00:57:46;;;;;;;8.65;3.80;;;;;;;;;;5017720;28;20039;-73
2021/03/26 01:00:13;;;;;;;11.80;3.13;;;;;;;;;;5021415;28;20083;-73
2021/03/26 01:02:39;;;;;;;13.10;3.20;;;;;;;;;;5018359;28;20445;-72
2021/03/26 01:05:16;;;;;;;8.30;4.10;;;;;;;;;;5018865;28;20098;-73
2021/03/26 01:07:44;;;;;;;5.93;3.00;;;;;;;;;;5015358;28;20033;-72
2021/03/26 01:10:13;;;;;;;6.47;3.28;;;;;;;;;;5018926;28;20079;-72
2021/03/26 01:12:41;;;;;;;6.13;3.10;;;;;;;;;;5017129;28;20069;-72
2021/03/26 01:15:10;;;;;;;6.30;2.65;;;;;;;;;;5004644;28;20109;-72
2021/03/26 01:17:38;;;;;;;7.00;3.17;;;;;;;;;;5019332;28;20044;-70
2021/03/26 01:20:14;;;;;;;3.80;3.08;;;;;;;;;;5018611;28;20037;-73
2021/03/26 01:22:45;;;;;;;6.03;3.13;;;;;;;;;;5013191;28;20763;-72
2021/03/26 01:25:16;;;;;;;12.40;3.47;;;;;;;;;;5000081;28;20449;-71
2021/03/26 01:27:44;;;;;;;12.88;4.32;;;;;;;;;;5018450;28;20116;-72
2021/03/26 01:30:13;;;;;;;7.82;3.35;;;;;;;;;;5015218;28;20734;-70
2021/03/26 01:32:41;;;;;;;7.10;3.10;;;;;;;;;;5013322;28;20044;-71
2021/03/26 01:35:08;;;;;;;9.18;3.42;;;;;;;;;;5019134;28;20025;-73
2021/03/26 01:37:41;;;;;;;8.45;3.50;;;;;;;;;;5019079;28;20088;-71
2021/03/26 01:40:08;;;;;;;13.25;3.92;;;;;;;;;;5025195;28;20032;-73
2021/03/26 01:42:39;;;;;;;14.77;3.00;;;;;;;;;;5017490;28;20249;-72
2021/03/26 01:45:16;;;;;;;13.68;3.85;;;;;;;;;;5016599;28;20029;-72
2021/03/26 01:47:45;;;;;;;13.25;3.70;;;;;;;;;;5018889;28;20461;-70
2021/03/26 01:50:13;;;;;;;14.80;3.10;;;;;;;;;;5020196;28;20079;-71
2021/03/26 01:52:43;;;;;;;8.20;3.50;;;;;;;;;;5017900;28;20143;-71
2021/03/26 01:55:39;;;;;;;7.82;3.00;;;;;;;;;;5019573;28;20592;-72
2021/03/26 01:58:13;;;;;;;10.95;3.67;;;;;;;;;;5016895;28;20025;-71
2021/03/26 02:00:44;;;;;;;11.43;3.92;;;;;;;;;;5014925;28;20068;-72
2021/03/26 02:03:22;;;;;;;10.82;3.47;;;;;;;;;;4998921;28;20028;-72
2021/03/26 02:05:48;;;;;;;5.70;3.28;;;;;;;;;;5007805;28;20036;-71
2021/03/26 02:08:19;;;;;;;7.38;3.30;;;;;;;;;;5013274;28;20042;-72
2021/03/26 02:10:46;;;;;;;9.15;3.60;;;;;;;;;;5021062;28;20078;-72
2021/03/26 02:13:36;;;;;;;7.15;3.65;;;;;;;;;;5000655;28;20171;-72
2021/03/26 02:16:08;;;;;;;5.03;2.75;;;;;;;;;;5007396;28;20052;-72
2021/03/26 02:18:38;;;;;;;7.28;3.47;;;;;;;;;;5018701;28;20033;-71
2021/03/26 02:21:12;;;;;;;5.07;2.60;;;;;;;;;;5017473;28;20033;-72
2021/03/26 02:23:40;;;;;;;5.97;2.83;;;;;;;;;;5017997;28;20040;-72
2021/03/26 02:26:13;;;;;;;5.55;3.00;;;;;;;;;;5018524;28;20037;-72
2021/03/26 02:28:38;;;;;;;5.07;2.72;;;;;;;;;;5022849;28;20045;-73
2021/03/26 02:31:06;;;;;;;6.95;2.75;;;;;;;;;;5016448;28;20056;-73
2021/03/26 02:33:35;;;;;;;12.05;2.83;;;;;;;;;;5017957;28;20028;-73
2021/03/26 02:36:13;;;;;;;7.03;2.80;;;;;;;;;;5015474;28;20037;-72
2021/03/26 02:38:45;;;;;;;6.43;2.20;;;;;;;;;;5022673;28;20100;-73
2021/03/26 02:41:21;;;;;;;9.68;2.65;;;;;;;;;;5025320;28;20088;-72
2021/03/26 02:43:50;;;;;;;10.95;2.78;;;;;;;;;;5024297;28;20036;-72
2021/03/26 02:46:36;;;;;;;10.48;2.13;;;;;;;;;;5021488;28;20040;-72
2021/03/26 02:49:19;;;;;;;5.95;2.83;;;;;;;;;;5018008;28;20036;-73
2021/03/26 02:51:52;;;;;;;4.85;2.72;;;;;;;;;;5008289;28;20202;-72
2021/03/26 02:54:41;;;;;;;7.47;2.58;;;;;;;;;;5000004;28;20080;-72
2021/03/26 02:57:19;;;;;;;7.43;2.67;;;;;;;;;;5017170;28;20036;-72
2021/03/26 02:59:48;;;;;;;5.30;2.25;;;;;;;;;;5018042;28;20053;-72
2021/03/26 03:02:19;;;;;;;2.38;1.95;;;;;;;;;;5018758;28;20156;-71
2021/03/26 03:05:01;;;;;;;8.73;2.97;;;;;;;;;;5016189;28;20515;-71
2021/03/26 03:07:29;;;;;;;6.78;2.35;;;;;;;;;;4999036;28;20141;-72
2021/03/26 03:09:58;;;;;;;6.18;2.67;;;;;;;;;;5019727;28;20021;-72
2021/03/26 03:12:32;;;;;;;4.93;2.83;;;;;;;;;;5015446;28;20037;-73
2021/03/26 03:15:24;;;;;;;12.77;3.13;;;;;;;;;;5021084;28;20060;-73
2021/03/26 03:17:54;;;;;;;7.43;2.63;;;;;;;;;;5015732;28;20511;-72
2021/03/26 03:20:31;;;;;;;5.55;2.65;;;;;;;;;;5000434;28;20033;-73
2021/03/26 03:23:18;;;;;;;6.93;3.03;;;;;;;;;;5002610;28;20024;-72
2021/03/26 03:25:43;;;;;;;10.90;2.78;;;;;;;;;;5017005;28;20025;-72
2021/03/26 03:28:20;;;;;;;6.85;2.72;;;;;;;;;;5004128;28;20117;-71
2021/03/26 03:30:51;;;;;;;6.68;3.22;;;;;;;;;;5017068;28;20052;-72
2021/03/26 03:33:31;;;;;;;6.63;2.55;;;;;;;;;;5004013;28;20243;-71
2021/03/26 03:35:58;;;;;;;11.13;3.13;;;;;;;;;;5019083;28;20035;-72
2021/03/26 03:38:27;;;;;;;9.70;4.00;;;;;;;;;;5004972;28;20083;-72
2021/03/26 03:40:56;;;;;;;6.32;2.97;;;;;;;;;;5017508;28;20033;-72
2021/03/26 03:43:41;;;;;;;5.72;3.28;;;;;;;;;;5022642;28;20037;-72
2021/03/26 03:46:10;;;;;;;11.38;2.53;;;;;;;;;;5009051;28;20123;-72
2021/03/26 03:48:56;;;;;;;6.60;3.05;;;;;;;;;;5017248;28;20392;-72
2021/03/26 03:51:27;;;;;;;9.75;3.10;;;;;;;;;;5012444;28;20045;-73
2021/03/26 03:54:22;;;;;;;12.02;3.70;;;;;;;;;;5015698;28;20106;-71
2021/03/26 03:56:56;;;;;;;7.22;3.25;;;;;;;;;;5006651;28;20376;-71
2021/03/26 03:59:34;;;;;;;8.60;2.97;;;;;;;;;;5016567;28;20091;-74
2021/03/26 04:02:15;;;;;;;9.50;3.88;;;;;;;;;;5021733;28;20074;-71
2021/03/26 04:04:56;;;;;;;10.55;3.92;;;;;;;;;;5016115;28;20033;-72
2021/03/26 04:07:27;;;;;;;7.82;3.78;;;;;;;;;;5015133;28;20017;-72
2021/03/26 04:09:55;;;;;;;11.43;4.32;;;;;;;;;;5013236;28;20033;-72
2021/03/26 04:12:26;;;;;;;6.22;3.60;;;;;;;;;;5022435;28;21903;-72
2021/03/26 04:14:59;;;;;;;15.10;5.47;;;;;;;;;;4999086;28;20029;-73
2021/03/26 04:17:30;;;;;;;10.70;4.38;;;;;;;;;;5011440;28;20021;-71
2021/03/26 04:20:01;;;;;;;11.90;4.82;;;;;;;;;;5016411;28;20048;-72
2021/03/26 04:22:30;;;;;;;8.88;4.63;;;;;;;;;;5031495;28;20048;-70
2021/03/26 04:25:05;;;;;;;17.05;5.18;;;;;;;;;;5004257;28;20032;-72
2021/03/26 04:27:43;;;;;;;11.40;4.95;;;;;;;;;;5015203;28;20098;-73
2021/03/26 04:30:13;;;;;;;14.35;5.47;;;;;;;;;;5020808;28;20087;-71
2021/03/26 04:32:41;;;;;;;15.38;5.35;;;;;;;;;;5034902;28;20040;-72
2021/03/26 04:35:08;;;;;;;13.77;5.85;;;;;;;;;;5019013;28;20132;-71
2021/03/26 04:37:34;;;;;;;14.13;6.70;;;;;;;;;;5003940;28;20056;-72
2021/03/26 04:39:59;;;;;;;14.18;6.07;;;;;;;;;;5000080;28;20137;-71
2021/03/26 04:42:36;;;;;;;12.85;5.75;;;;;;;;;;5016022;28;20117;-69
2021/03/26 04:45:26;;;;;;;14.60;5.78;;;;;;;;;;5015278;28;20968;-71
2021/03/26 04:47:58;;;;;;;20.15;7.10;;;;;;;;;;5023372;28;20036;-71
2021/03/26 04:50:29;;;;;;;14.83;6.90;;;;;;;;;;5016213;28;21158;-72
2021/03/26 04:53:08;;;;;;;17.27;7.10;;;;;;;;;;5013790;28;20029;-73
2021/03/26 04:55:39;;;;;;;18.88;7.93;;;;;;;;;;5013981;28;20695;-72
2021/03/26 04:58:13;;;;;;;26.95;8.25;;;;;;;;;;5014722;28;20535;-71
2021/03/26 05:00:52;;;;;;;21.63;8.18;;;;;;;;;;5002739;28;20056;-74
2021/03/26 05:03:28;;;;;;;20.05;9.05;;;;;;;;;;5000113;28;20025;-71
2021/03/26 05:05:57;;;;;;;16.40;8.50;;;;;;;;;;5014826;28;20040;-72
2021/03/26 05:08:24;;;;;;;16.92;9.18;;;;;;;;;;5002054;28;20391;-71
2021/03/26 05:10:52;;;;;;;19.25;9.38;;;;;;;;;;5015509;28;20495;-73
2021/03/26 05:13:23;;;;;;;25.02;10.32;;;;;;;;;;5015130;28;20034;-72
2021/03/26 05:16:10;;;;;;;22.00;9.10;;;;;;;;;;4995004;28;20203;-70
2021/03/26 05:18:43;;;;;;;23.23;10.15;;;;;;;;;;5018253;28;20154;-70
2021/03/26 05:21:13;;;;;;;20.70;9.82;;;;;;;;;;5018863;28;20037;-70
2021/03/26 05:23:44;;;;;;;20.98;10.57;;;;;;;;;;5003264;28;20070;-70
2021/03/26 05:26:10;;;;;;;26.67;11.52;;;;;;;;;;5020124;28;20029;-69
2021/03/26 05:28:43;;;;;;;22.85;12.13;;;;;;;;;;5022143;28;20033;-70
2021/03/26 05:31:10;;;;;;;30.80;11.63;;;;;;;;;;5020568;28;20168;-68
2021/03/26 05:33:41;;;;;;;28.60;12.07;;;;;;;;;;5015836;28;20045;-69
2021/03/26 05:36:19;;;;;;;25.70;10.95;;;;;;;;;;4999821;28;20055;-70
2021/03/26 05:38:52;;;;;;;24.80;12.45;;;;;;;;;;5010579;28;20028;-69
2021/03/26 05:41:19;;;;;;;24.73;11.75;;;;;;;;;;5023518;28;20648;-70
2021/03/26 05:43:51;;;;;;;25.08;11.13;;;;;;;;;;5016777;28;20106;-70
2021/03/26 05:46:18;;;;;;;22.48;11.52;;;;;;;;;;5015960;28;20151;-69
2021/03/26 05:49:06;;;;;;;30.45;11.50;;;;;;;;;;5018778;28;20465;-69
2021/03/26 05:51:31;;;;;;;27.98;12.05;;;;;;;;;;5022337;28;20037;-70
2021/03/26 05:54:12;;;;;;;36.33;11.85;;;;;;;;;;5002793;28;20037;-70
2021/03/26 05:56:58;;;;;;;24.17;11.05;;;;;;;;;;5002254;28;22073;-69
2021/03/26 05:59:24;;;;;;;27.17;11.73;;;;;;;;;;5018576;28;20025;-70
2021/03/26 06:01:52;;;;;;;26.75;12.13;;;;;;;;;;5001830;28;20103;-70
2021/03/26 06:04:26;;;;;;;28.75;11.88;;;;;;;;;;5002772;28;20342;-70
2021/03/26 06:07:06;;;;;;;24.48;12.23;;;;;;;;;;5016226;28;20118;-70
2021/03/26 06:09:50;;;;;;;29.63;12.77;;;;;;;;;;5016140;28;20025;-68
2021/03/26 06:12:34;;;;;;;29.67;12.27;;;;;;;;;;5014899;28;20028;-69
2021/03/26 06:15:23;;;;;;;25.80;11.83;;;;;;;;;;5020688;28;20048;-69
2021/03/26 06:17:53;;;;;;;26.23;12.43;;;;;;;;;;5026331;28;20068;-69
2021/03/26 06:20:19;;;;;;;28.95;12.50;;;;;;;;;;5000840;28;20040;-71
2021/03/26 06:23:07;;;;;;;21.85;11.45;;;;;;;;;;5017118;28;20524;-70
2021/03/26 06:25:42;;;;;;;26.77;12.65;;;;;;;;;;5000762;28;20033;-70
2021/03/26 06:28:28;;;;;;;32.55;12.43;;;;;;;;;;5017979;28;20112;-69
2021/03/26 06:31:02;;;;;;;28.40;12.27;;;;;;;;;;5013309;28;20697;-72
2021/03/26 06:33:53;;;;;;;22.40;10.85;;;;;;;;;;5021604;28;20037;-71
2021/03/26 06:36:33;;;;;;;28.73;12.20;;;;;;;;;;5017155;28;20541;-72
2021/03/26 06:39:17;;;;;;;26.35;12.68;;;;;;;;;;5016198;28;20123;-70
2021/03/26 06:42:01;;;;;;;32.80;13.20;;;;;;;;;;5020781;28;20029;-71
2021/03/26 06:44:51;;;;;;;34.85;12.63;;;;;;;;;;5019603;28;21227;-70
2021/03/26 06:47:22;;;;;;;34.20;11.88;;;;;;;;;;5020097;28;20029;-71
2021/03/26 06:49:56;;;;;;;23.48;11.20;;;;;;;;;;5014000;28;20029;-72
2021/03/26 06:52:43;;;;;;;21.65;10.95;;;;;;;;;;5020560;28;20032;-72
2021/03/26 06:55:33;;;;;;;24.52;12.48;;;;;;;;;;5011833;28;20132;-71
2021/03/26 06:58:17;;;;;;;30.25;12.75;;;;;;;;;;5015973;28;20090;-71
2021/03/26 07:00:55;;;;;;;27.92;11.50;;;;;;;;;;5017304;28;20100;-71
2021/03/26 07:03:39;;;;;;;26.90;11.73;;;;;;;;;;5017518;28;20492;-71
2021/03/26 07:06:26;;;;;;;23.33;11.40;;;;;;;;;;5014855;28;20037;-71
2021/03/26 07:08:52;;;;;;;31.33;12.55;;;;;;;;;;5001191;28;20108;-71
2021/03/26 07:11:35;;;;;;;20.77;11.80;;;;;;;;;;5004138;28;20039;-71
2021/03/26 07:14:05;;;;;;;28.95;12.52;;;;;;;;;;4997253;28;20068;-71
2021/03/26 07:16:40;;;;;;;30.65;11.63;;;;;;;;;;5019253;28;20044;-69
2021/03/26 07:19:23;;;;;;;27.85;13.50;;;;;;;;;;5015292;28;20041;-70
2021/03/26 07:21:57;;;;;;;29.90;12.20;;;;;;;;;;5016477;28;20029;-70
2021/03/26 07:24:41;;;;;;;25.08;11.80;;;;;;;;;;5023508;28;20027;-71
2021/03/26 07:27:12;;;;;;;25.63;11.98;;;;;;;;;;5021734;28;20542;-71
2021/03/26 07:30:04;;;;;;;26.58;12.43;;;;;;;;;;5017713;28;20064;-71
2021/03/26 07:32:41;;;;;;;30.63;11.27;;;;;;;;;;5018773;28;20061;-69
2021/03/26 07:35:17;;;;;;;23.27;11.65;;;;;;;;;;5018320;28;21263;-71
2021/03/26 07:37:55;;;;;;;22.90;11.57;;;;;;;;;;5002141;28;20021;-68
2021/03/26 07:40:34;;;;;;;28.73;11.65;;;;;;;;;;5015469;28;20623;-70
2021/03/26 07:43:25;;;;;;;23.30;12.82;;;;;;;;;;5006166;28;20025;-72
2021/03/26 07:45:55;;;;;;;25.55;10.50;;;;;;;;;;5016242;28;20036;-72
2021/03/26 07:48:29;;;;;;;22.63;10.57;;;;;;;;;;5016682;28;20123;-72
2021/03/26 07:51:09;;;;;;;24.75;11.90;;;;;;;;;;5013776;28;20040;-70
2021/03/26 07:53:34;;;;;;;26.13;11.88;;;;;;;;;;5002223;28;20393;-71
2021/03/26 07:56:18;;;;;;;27.25;11.40;;;;;;;;;;5017435;28;20043;-73
2021/03/26 07:59:03;;;;;;;25.58;12.13;;;;;;;;;;5014598;28;20115;-71
2021/03/26 08:01:58;;;;;;;27.58;11.60;;;;;;;;;;5018800;28;20119;-70
2021/03/26 08:04:35;;;;;;;22.00;11.57;;;;;;;;;;5016971;28;20024;-70
2021/03/26 08:07:13;;;;;;;20.92;11.18;;;;;;;;;;5014645;28;20390;-71
2021/03/26 08:10:05;;;;;;;25.35;11.18;;;;;;;;;;5015200;28;20507;-72
2021/03/26 08:12:39;;;;;;;26.65;11.52;;;;;;;;;;5007726;28;20258;-71
2021/03/26 08:15:17;;;;;;;23.83;11.65;;;;;;;;;;5016499;28;20040;-71
2021/03/26 08:17:48;;;;;;;21.67;10.85;;;;;;;;;;5016520;28;21079;-71
2021/03/26 08:20:17;;;;;;;25.88;11.45;;;;;;;;;;5004426;28;20046;-72
2021/03/26 08:22:49;;;;;;;28.15;12.07;;;;;;;;;;5020555;28;20179;-70
2021/03/26 08:25:14;;;;;;;24.85;12.13;;;;;;;;;;5002434;28;20068;-70
2021/03/26 08:27:45;;;;;;;20.30;10.85;;;;;;;;;;5015703;28;20132;-69
2021/03/26 08:30:30;;;;;;;26.60;11.98;;;;;;;;;;5013399;28;20084;-71
2021/03/26 08:33:16;;;;;;;23.02;11.30;;;;;;;;;;5012390;28;20033;-71
2021/03/26 08:35:41;;;;;;;;;;;;;;;;;;5010668;28;20075;-71
2021/03/26 08:38:13;;;;;;;23.50;11.82;;;;;;;;;;5016184;28;20418;-70
2021/03/26 08:40:43;;;;;;;23.60;11.18;;;;;;;;;;5012865;28;20518;-71
2021/03/26 08:43:13;;;;;;;24.38;11.48;;;;;;;;;;5030388;28;20528;-70
2021/03/26 08:45:42;;;;;;;22.33;11.48;;;;;;;;;;5016148;28;20099;-72
2021/03/26 08:48:09;;;;;;;26.85;11.95;;;;;;;;;;5003266;28;20036;-70
2021/03/26 08:50:37;;;;;;;21.92;10.55;;;;;;;;;;5013828;28;20040;-70
2021/03/26 08:53:21;;;;;;;22.02;11.25;;;;;;;;;;5014392;28;20033;-72
2021/03/26 08:56:11;;;;;;;27.65;12.30;;;;;;;;;;5018643;28;20112;-71
2021/03/26 08:58:41;;;;;;;22.42;12.05;;;;;;;;;;5010957;28;20025;-71
2021/03/26 09:01:18;;;;;;;22.98;11.50;;;;;;;;;;5020609;28;20105;-72
2021/03/26 09:03:43;;;;;;;21.48;10.98;;;;;;;;;;5008767;28;20028;-73
2021/03/26 09:06:27;;;;;;;26.83;12.15;;;;;;;;;;5020534;28;20083;-71
2021/03/26 09:08:59;;;;;;;19.55;11.15;;;;;;;;;;5001692;28;20032;-71
2021/03/26 09:11:42;;;;;;;18.83;10.68;;;;;;;;;;5021185;28;20044;-71
2021/03/26 09:14:28;;;;;;;21.10;10.93;;;;;;;;;;5016526;28;20040;-69
2021/03/26 09:17:32;;;;;;;22.23;10.90;;;;;;;;;;5014745;28;21061;-70
2021/03/26 09:20:07;;;;;;;21.17;11.35;;;;;;;;;;4970553;28;20144;-70
2021/03/26 09:22:32;;;;;;;;;;;;;;;;;;4967061;28;20117;-71
2021/03/26 09:25:06;;;;;;;19.45;10.02;;;;;;;;;;4989849;28;20070;-74
2021/03/26 09:27:47;;;;;;;21.20;10.60;;;;;;;;;;5015728;28;20139;-71
2021/03/26 09:30:19;;;;;;;19.27;9.88;;;;;;;;;;5018176;28;20127;-71
2021/03/26 09:32:49;;;;;;;18.80;9.70;;;;;;;;;;5014420;28;20025;-70
2021/03/26 09:35:20;;;;;;;17.40;9.43;;;;;;;;;;5020154;28;20247;-71
2021/03/26 09:37:52;;;;;;;17.55;10.10;;;;;;;;;;5016518;28;20029;-71
2021/03/26 09:40:39;;;;;;;18.92;9.45;;;;;;;;;;5018956;28;20064;-71
2021/03/26 09:43:08;;;;;;;15.63;9.60;;;;;;;;;;5014212;28;20519;-71
2021/03/26 09:45:48;;;;;;;18.52;9.75;;;;;;;;;;5019764;28;20039;-71
2021/03/26 09:48:13;;;;;;;15.98;8.45;;;;;;;;;;5014341;28;20040;-69
2021/03/26 09:50:47;;;;;;;16.92;8.23;;;;;;;;;;5022351;28;20725;-70
2021/03/26 09:53:17;;;;;;;17.98;8.85;;;;;;;;;;5013437;28;20041;-69
2021/03/26 09:55:45;;;;;;;16.05;8.77;;;;;;;;;;5024172;28;20033;-69
2021/03/26 09:58:14;;;;;;;17.95;8.50;;;;;;;;;;5003122;28;20025;-72
2021/03/26 10:00:45;;;;;;;17.23;8.98;;;;;;;;;;5023457;28;20076;-70
2021/03/26 10:03:37;;;;;;;14.27;8.15;;;;;;;;;;5014387;28;21133;-70
2021/03/26 10:06:12;;;;;;;12.90;7.45;;;;;;;;;;5009000;28;20147;-69
2021/03/26 10:09:35;;;;;;;13.23;7.65;;;;;;;;;;5020704;28;20087;-65
2021/03/26 10:11:45;;;;;;;14.18;8.15;;;;;;;;;;5019913;28;20044;-69
2021/03/26 10:14:39;;;;;;;17.00;7.57;;;;;;;;;;5035265;28;20719;-69
2021/03/26 10:17:05;;;;;;;14.68;7.97;;;;;;;;;;5023950;28;20049;-71
2021/03/26 10:19:42;;;;;;;12.55;7.45;;;;;;;;;;5011438;28;20509;-67
2021/03/26 10:22:31;;;;;;;13.85;7.13;;;;;;;;;;5022043;28;20040;-72
2021/03/26 10:25:05;;;;;;;11.80;6.43;;;;;;;;;;4980678;28;20170;-69
2021/03/26 10:27:38;;;;;;;14.60;6.50;;;;;;;;;;5015908;28;20124;-70
2021/03/26 10:30:17;;;;;;;12.82;6.93;;;;;;;;;;5017658;28;20045;-68
2021/03/26 10:32:43;;;;;;;12.50;6.68;;;;;;;;;;5016407;28;20025;-66
2021/03/26 10:35:16;;;;;;;14.25;7.03;;;;;;;;;;5017365;28;20037;-69
2021/03/26 10:37:45;;;;;;;11.68;6.82;;;;;;;;;;5018223;28;20064;-69
2021/03/26 10:40:13;;;;;;;12.10;6.78;;;;;;;;;;5023445;28;20024;-68
2021/03/26 10:43:01;;;;;;;11.88;6.63;;;;;;;;;;5021975;28;20124;-68
2021/03/26 10:45:26;;;;;;;11.48;6.72;;;;;;;;;;5022141;28;20049;-67
2021/03/26 10:47:57;;;;;;;12.68;6.57;;;;;;;;;;5016273;28;20969;-67
2021/03/26 10:50:42;;;;;;;11.60;6.22;;;;;;;;;;5016945;28;20112;-66
2021/03/26 10:53:11;;;;;;;14.05;6.38;;;;;;;;;;5003947;28;20057;-69
2021/03/26 10:55:51;;;;;;;9.73;5.55;;;;;;;;;;5016972;28;20072;-70
2021/03/26 10:58:39;;;;;;;10.40;5.88;;;;;;;;;;5013716;28;20041;-69
2021/03/26 11:01:04;;;;;;;9.98;6.78;;;;;;;;;;5024300;28;20053;-69
2021/03/26 11:03:54;;;;;;;13.40;5.63;;;;;;;;;;5017131;28;20024;-68
2021/03/26 11:06:29;;;;;;;11.43;5.18;;;;;;;;;;5017504;28;21997;-70
2021/03/26 11:09:03;;;;;;;12.05;5.82;;;;;;;;;;5007452;28;20682;-68
2021/03/26 11:11:39;;;;;;;9.70;6.03;;;;;;;;;;5000296;28;20037;-70
2021/03/26 11:14:12;;;;;;;12.15;6.22;;;;;;;;;;5019065;28;21047;-68
2021/03/26 11:16:40;;;;;;;9.50;5.47;;;;;;;;;;5016618;28;20043;-69
2021/03/26 11:19:10;;;;;;;11.32;6.18;;;;;;;;;;5013882;28;20069;-69
2021/03/26 11:21:46;;;;;;;10.40;6.13;;;;;;;;;;5020470;28;20073;-69
2021/03/26 11:24:12;;;;;;;9.03;5.53;;;;;;;;;;5016634;28;20133;-70
2021/03/26 11:26:42;;;;;;;10.40;5.40;;;;;;;;;;5025571;28;20320;-70
2021/03/26 11:29:22;;;;;;;7.40;4.47;;;;;;;;;;5015545;28;20112;-69
2021/03/26 11:32:12;;;;;;;7.30;4.50;;;;;;;;;;5015189;28;20513;-68
2021/03/26 11:34:46;;;;;;;12.18;4.93;;;;;;;;;;5015449;28;20524;-68
2021/03/26 11:37:14;;;;;;;;;;;;;;;;;;5019965;28;20138;-68
2021/03/26 11:39:53;;;;;;;8.77;4.25;;;;;;;;;;5016941;28;20361;-67
2021/03/26 11:42:28;;;;;;;11.93;4.88;;;;;;;;;;5019640;28;20156;-68
2021/03/26 11:44:59;;;;;;;13.60;4.40;;;;;;;;;;5018098;28;20946;-68
2021/03/26 11:47:28;;;;;;;7.60;4.55;;;;;;;;;;5017145;28;20059;-68
2021/03/26 11:50:03;;;;;;;6.97;4.15;;;;;;;;;;5017693;28;20033;-70
2021/03/26 11:52:39;;;;;;;5.88;4.18;;;;;;;;;;5016326;28;20029;-68
2021/03/26 11:55:15;;;;;;;10.00;4.32;;;;;;;;;;5014751;28;20056;-69
2021/03/26 11:58:04;;;;;;;9.80;4.57;;;;;;;;;;5016075;28;20079;-70
2021/03/26 12:00:31;;;;;;;12.10;5.03;;;;;;;;;;5002506;28;20782;-69
2021/03/26 12:03:19;;;;;;;11.35;4.90;;;;;;;;;;4999963;28;20056;-69
2021/03/26 12:06:00;;;;;;;9.02;4.30;;;;;;;;;;5020162;28;20142;-70
2021/03/26 12:08:34;;;;;;;9.18;4.78;;;;;;;;;;5016017;28;20592;-69
2021/03/26 12:10:59;;;;;;;11.70;4.25;;;;;;;;;;5017632;28;20032;-68
2021/03/26 12:13:25;;;;;;;8.50;4.20;;;;;;;;;;5015964;28;20043;-69
2021/03/26 12:15:53;;;;;;;6.43;4.28;;;;;;;;;;5019412;28;20072;-69
2021/03/26 12:18:31;;;;;;;9.57;4.28;;;;;;;;;;5015453;28;20032;-68
2021/03/26 12:21:12;;;;;;;12.57;3.90;;;;;;;;;;5006512;28;20123;-68
2021/03/26 12:24:12;;;;;;;9.35;4.50;;;;;;;;;;5014789;28;20186;-69
2021/03/26 12:26:58;;;;;;;9.30;4.25;;;;;;;;;;4987652;28;20737;-68
2021/03/26 12:29:30;;;;;;;9.80;4.53;;;;;;;;;;5018208;28;20056;-70
2021/03/26 12:32:06;;;;;;;10.93;4.32;;;;;;;;;;5018385;28;20049;-68
2021/03/26 12:34:43;;;;;;;6.38;3.72;;;;;;;;;;5014122;28;20044;-69
2021/03/26 12:37:08;;;;;;;;;;;;;;;;;;5015754;28;20151;-69
2021/03/26 12:39:38;;;;;;;9.98;3.08;;;;;;;;;;5018897;28;20664;-71
2021/03/26 12:42:07;;;;;;;12.75;3.15;;;;;;;;;;5015926;28;20108;-70
2021/03/26 12:44:38;;;;;;;7.05;3.03;;;;;;;;;;5013938;28;20206;-72
2021/03/26 12:47:16;;;;;;;5.93;3.10;;;;;;;;;;4998720;28;20243;-71
2021/03/26 12:49:56;;;;;;;6.22;3.20;;;;;;;;;;5016933;28;20373;-71
2021/03/26 12:52:32;;;;;;;9.00;3.08;;;;;;;;;;5014375;28;21013;-69
2021/03/26 12:55:06;;;;;;;5.32;2.47;;;;;;;;;;5016546;28;20025;-70
2021/03/26 12:57:43;;;;;;;6.75;2.40;;;;;;;;;;4999733;28;21963;-67
2021/03/26 13:00:17;;;;;;;9.68;3.25;;;;;;;;;;5001667;28;20117;-68
2021/03/26 13:02:53;;;;;;;7.57;2.75;;;;;;;;;;5013262;28;20931;-68
2021/03/26 13:05:25;;;;;;;7.45;2.67;;;;;;;;;;5013650;28;20037;-69
2021/03/26 13:07:54;;;;;;;7.50;2.72;;;;;;;;;;5030011;28;20075;-68
2021/03/26 13:10:27;;;;;;;5.05;2.47;;;;;;;;;;5016013;28;20140;-69
2021/03/26 13:13:14;;;;;;;6.78;3.38;;;;;;;;;;5015473;28;20033;-70
2021/03/26 13:15:40;;;;;;;4.80;2.63;;;;;;;;;;5014644;28;20033;-69
2021/03/26 13:18:12;;;;;;;10.05;2.28;;;;;;;;;;5015466;28;20171;-68
2021/03/26 13:20:50;;;;;;;6.40;1.83;;;;;;;;;;5012342;28;20029;-65
2021/03/26 13:23:21;;;;;;;4.90;1.92;;;;;;;;;;5013964;28;20029;-70
2021/03/26 13:25:52;;;;;;;12.63;2.55;;;;;;;;;;5013493;28;20428;-67
2021/03/26 13:28:49;;;;;;;3.42;2.03;;;;;;;;;;5014550;28;20048;-70
2021/03/26 13:31:21;;;;;;;9.57;3.08;;;;;;;;;;4988170;28;20144;-67
2021/03/26 13:34:06;;;;;;;5.45;2.10;;;;;;;;;;5002904;28;20106;-68
2021/03/26 13:36:31;;;;;;;10.15;2.08;;;;;;;;;;5012881;28;20072;-66
2021/03/26 13:39:03;;;;;;;7.88;2.67;;;;;;;;;;5015779;28;20144;-67
2021/03/26 13:41:45;;;;;;;4.55;2.05;;;;;;;;;;5017123;28;20115;-68
2021/03/26 13:44:14;;;;;;;4.07;1.92;;;;;;;;;;5005672;28;20109;-68
2021/03/26 13:46:41;;;;;;;9.60;3.40;;;;;;;;;;5016478;28;20040;-69
2021/03/26 13:49:13;;;;;;;9.02;3.13;;;;;;;;;;5017526;28;20033;-70
2021/03/26 13:51:41;;;;;;;7.78;2.63;;;;;;;;;;5032471;28;20155;-70
2021/03/26 13:54:25;;;;;;;5.75;2.70;;;;;;;;;;5018362;28;20085;-68
2021/03/26 13:56:54;;;;;;;6.43;2.33;;;;;;;;;;5005975;28;20026;-69
2021/03/26 13:59:31;;;;;;;7.63;2.80;;;;;;;;;;5017086;28;20034;-70
2021/03/26 14:02:00;;;;;;;6.22;2.65;;;;;;;;;;5016060;28;20044;-69
2021/03/26 14:04:29;;;;;;;7.78;3.03;;;;;;;;;;5019421;28;20701;-69
2021/03/26 14:06:54;;;;;;;7.00;2.75;;;;;;;;;;5021480;28;20068;-70
2021/03/26 14:09:23;;;;;;;6.85;2.58;;;;;;;;;;5019582;28;20091;-70
2021/03/26 14:12:00;;;;;;;9.10;3.15;;;;;;;;;;5002123;28;20032;-71
2021/03/26 14:14:29;;;;;;;7.50;2.65;;;;;;;;;;5010654;28;20049;-69
2021/03/26 14:16:55;;;;;;;6.72;2.63;;;;;;;;;;5014887;28;20029;-69
2021/03/26 14:19:34;;;;;;;3.97;2.20;;;;;;;;;;5018529;28;20075;-73
2021/03/26 14:22:23;;;;;;;3.22;1.88;;;;;;;;;;5003233;28;20083;-70
2021/03/26 14:24:59;;;;;;;4.03;2.60;;;;;;;;;;5017848;28;20579;-70
2021/03/26 14:27:38;;;;;;;9.20;2.85;;;;;;;;;;5016808;28;20136;-71
2021/03/26 14:30:09;;;;;;;5.57;2.70;;;;;;;;;;5015138;28;20119;-70
2021/03/26 14:32:40;;;;;;;7.70;2.72;;;;;;;;;;4998449;28;20044;-69
2021/03/26 14:35:18;;;;;;;7.35;2.40;;;;;;;;;;5016102;28;20105;-70
2021/03/26 14:37:44;;;;;;;5.60;2.53;;;;;;;;;;5017478;28;20120;-70
2021/03/26 14:40:16;;;;;;;5.82;3.40;;;;;;;;;;5025913;28;20029;-68
2021/03/26 14:42:43;;;;;;;12.77;3.10;;;;;;;;;;5015632;28;20456;-69
2021/03/26 14:45:41;;;;;;;4.88;2.38;;;;;;;;;;5016836;28;20881;-69
2021/03/26 14:48:16;;;;;;;7.88;2.80;;;;;;;;;;4995267;28;20089;-69
2021/03/26 14:50:41;;;;;;;;;;;;;;;;;;5022303;28;20042;-71
2021/03/26 14:53:13;;;;;;;8.98;2.58;;;;;;;;;;4998865;28;19928;-69
2021/03/26 14:55:39;;;;;;;4.85;2.58;;;;;;;;;;5015617;28;20159;-69
2021/03/26 14:58:27;;;;;;;10.75;3.03;;;;;;;;;;5014742;28;20025;-71
2021/03/26 15:01:09;;;;;;;5.15;2.40;;;;;;;;;;5015978;28;20033;-71
2021/03/26 15:03:44;;;;;;;7.15;2.70;;;;;;;;;;5017341;28;21452;-66
2021/03/26 15:06:18;;;;;;;8.05;2.97;;;;;;;;;;5018357;28;20039;-71
2021/03/26 15:08:56;;;;;;;9.20;2.78;;;;;;;;;;5013959;28;20060;-69
2021/03/26 15:11:34;;;;;;;7.65;2.45;;;;;;;;;;5017181;28;20388;-70
2021/03/26 15:14:08;;;;;;;6.90;2.70;;;;;;;;;;5001687;28;20255;-71
2021/03/26 15:16:37;;;;;;;9.18;2.45;;;;;;;;;;5020311;28;20093;-69